sensor_id;sensor_type;location;lat;lon;timestamp;P1;durP1;ratioP1;P2;durP2;ratioP2
22034;SDS011;11181;51.002;4.356;2023-02-03T00:01:59;4.13;;;3.23;;
22034;SDS011;11181;51.002;4.356;2023-02-03T00:04:27;10.00;;;4.03;;
22034;SDS011;11181;51.002;4.356;2023-02-03T00:06:54;9.47;;;4.07;;
22034;SDS011;11181;51.002;4.356;2023-02-03T00:09:22;8.00;;;3.40;;
22034;SDS011;11181;51.002;4.356;2023-02-03T00:11:49;7.27;;;3.53;;
22034;SDS011;11181;51.002;4.356;2023-02-03T00:14:16;8.73;;;3.67;;
22034;SDS011;11181;51.002;4.356;2023-02-03T00:16:43;5.57;;;3.27;;
22034;SDS011;11181;51.002;4.356;2023-02-03T00:19:09;11.60;;;4.40;;
22034;SDS011;11181;51.002;4.356;2023-02-03T00:21:38;8.80;;;4.07;;
22034;SDS011;11181;51.002;4.356;2023-02-03T00:24:05;9.67;;;3.53;;
22034;SDS011;11181;51.002;4.356;2023-02-03T00:26:32;4.30;;;2.70;;
22034;SDS011;11181;51.002;4.356;2023-02-03T00:28:59;14.20;;;4.17;;
22034;SDS011;11181;51.002;4.356;2023-02-03T00:31:26;5.67;;;2.27;;
22034;SDS011;11181;51.002;4.356;2023-02-03T00:33:53;7.00;;;2.87;;
22034;SDS011;11181;51.002;4.356;2023-02-03T00:36:21;6.70;;;2.60;;
22034;SDS011;11181;51.002;4.356;2023-02-03T00:38:49;8.83;;;2.87;;
22034;SDS011;11181;51.002;4.356;2023-02-03T00:41:16;6.23;;;2.97;;
22034;SDS011;11181;51.002;4.356;2023-02-03T00:43:44;6.30;;;2.47;;
22034;SDS011;11181;51.002;4.356;2023-02-03T00:46:11;7.17;;;2.30;;
22034;SDS011;11181;51.002;4.356;2023-02-03T00:48:38;10.40;;;2.67;;
22034;SDS011;11181;51.002;4.356;2023-02-03T00:51:05;8.53;;;2.40;;
22034;SDS011;11181;51.002;4.356;2023-02-03T00:53:32;13.90;;;3.07;;
22034;SDS011;11181;51.002;4.356;2023-02-03T00:56:00;5.70;;;2.77;;
22034;SDS011;11181;51.002;4.356;2023-02-03T00:58:27;8.33;;;2.63;;
22034;SDS011;11181;51.002;4.356;2023-02-03T01:00:54;7.40;;;2.60;;
22034;SDS011;11181;51.002;4.356;2023-02-03T01:03:21;8.37;;;2.60;;
22034;SDS011;11181;51.002;4.356;2023-02-03T01:05:48;9.37;;;2.20;;
22034;SDS011;11181;51.002;4.356;2023-02-03T01:08:15;4.83;;;1.67;;
22034;SDS011;11181;51.002;4.356;2023-02-03T01:10:42;8.03;;;2.43;;
22034;SDS011;11181;51.002;4.356;2023-02-03T01:13:10;8.20;;;2.30;;
22034;SDS011;11181;51.002;4.356;2023-02-03T01:15:43;10.20;;;2.30;;
22034;SDS011;11181;51.002;4.356;2023-02-03T01:18:11;10.97;;;2.10;;
22034;SDS011;11181;51.002;4.356;2023-02-03T01:20:38;5.23;;;2.13;;
22034;SDS011;11181;51.002;4.356;2023-02-03T01:23:05;8.37;;;2.27;;
22034;SDS011;11181;51.002;4.356;2023-02-03T01:25:33;13.20;;;4.03;;
22034;SDS011;11181;51.002;4.356;2023-02-03T01:28:00;9.00;;;2.00;;
22034;SDS011;11181;51.002;4.356;2023-02-03T01:30:28;9.07;;;2.60;;
22034;SDS011;11181;51.002;4.356;2023-02-03T01:32:55;8.83;;;1.93;;
22034;SDS011;11181;51.002;4.356;2023-02-03T01:35:22;6.20;;;2.27;;
22034;SDS011;11181;51.002;4.356;2023-02-03T01:37:49;7.83;;;1.90;;
22034;SDS011;11181;51.002;4.356;2023-02-03T01:40:16;3.93;;;1.93;;
22034;SDS011;11181;51.002;4.356;2023-02-03T01:42:44;6.33;;;1.90;;
22034;SDS011;11181;51.002;4.356;2023-02-03T01:45:11;7.87;;;1.73;;
22034;SDS011;11181;51.002;4.356;2023-02-03T01:47:41;8.57;;;2.03;;
22034;SDS011;11181;51.002;4.356;2023-02-03T01:50:12;10.73;;;2.33;;
22034;SDS011;11181;51.002;4.356;2023-02-03T01:52:42;6.67;;;1.73;;
22034;SDS011;11181;51.002;4.356;2023-02-03T01:55:13;6.63;;;2.83;;
22034;SDS011;11181;51.002;4.356;2023-02-03T01:57:45;4.53;;;1.73;;
22034;SDS011;11181;51.002;4.356;2023-02-03T02:00:16;12.23;;;2.00;;
22034;SDS011;11181;51.002;4.356;2023-02-03T02:02:46;5.60;;;1.47;;
22034;SDS011;11181;51.002;4.356;2023-02-03T02:05:16;7.30;;;1.93;;
22034;SDS011;11181;51.002;4.356;2023-02-03T02:07:47;10.97;;;1.90;;
22034;SDS011;11181;51.002;4.356;2023-02-03T02:10:15;5.87;;;2.10;;
22034;SDS011;11181;51.002;4.356;2023-02-03T02:12:43;7.03;;;1.70;;
22034;SDS011;11181;51.002;4.356;2023-02-03T02:15:10;7.27;;;1.67;;
22034;SDS011;11181;51.002;4.356;2023-02-03T02:17:55;4.40;;;1.70;;
22034;SDS011;11181;51.002;4.356;2023-02-03T02:23:50;9.97;;;1.77;;
22034;SDS011;11181;51.002;4.356;2023-02-03T02:26:36;2.67;;;1.40;;
22034;SDS011;11181;51.002;4.356;2023-02-03T02:29:19;5.27;;;1.83;;
22034;SDS011;11181;51.002;4.356;2023-02-03T02:32:18;6.73;;;1.93;;
22034;SDS011;11181;51.002;4.356;2023-02-03T02:34:55;8.00;;;1.87;;
22034;SDS011;11181;51.002;4.356;2023-02-03T02:37:32;8.50;;;1.57;;
22034;SDS011;11181;51.002;4.356;2023-02-03T02:40:06;7.83;;;2.00;;
22034;SDS011;11181;51.002;4.356;2023-02-03T02:42:41;7.33;;;1.90;;
22034;SDS011;11181;51.002;4.356;2023-02-03T02:45:21;13.43;;;2.23;;
22034;SDS011;11181;51.002;4.356;2023-02-03T02:47:53;4.77;;;1.37;;
22034;SDS011;11181;51.002;4.356;2023-02-03T02:50:25;7.50;;;1.50;;
22034;SDS011;11181;51.002;4.356;2023-02-03T02:52:55;6.47;;;1.60;;
22034;SDS011;11181;51.002;4.356;2023-02-03T02:55:23;6.63;;;1.40;;
22034;SDS011;11181;51.002;4.356;2023-02-03T02:57:54;3.70;;;1.27;;
22034;SDS011;11181;51.002;4.356;2023-02-03T03:00:28;3.30;;;1.50;;
22034;SDS011;11181;51.002;4.356;2023-02-03T03:03:03;7.80;;;1.87;;
22034;SDS011;11181;51.002;4.356;2023-02-03T03:05:37;1.87;;;1.23;;
22034;SDS011;11181;51.002;4.356;2023-02-03T03:08:07;6.50;;;1.33;;
22034;SDS011;11181;51.002;4.356;2023-02-03T03:10:37;3.67;;;1.40;;
22034;SDS011;11181;51.002;4.356;2023-02-03T03:13:07;4.37;;;1.17;;
22034;SDS011;11181;51.002;4.356;2023-02-03T03:15:37;5.30;;;1.77;;
22034;SDS011;11181;51.002;4.356;2023-02-03T03:18:09;7.20;;;2.07;;
22034;SDS011;11181;51.002;4.356;2023-02-03T03:20:40;6.53;;;1.33;;
22034;SDS011;11181;51.002;4.356;2023-02-03T03:23:09;5.93;;;1.60;;
22034;SDS011;11181;51.002;4.356;2023-02-03T03:25:42;6.70;;;1.63;;
22034;SDS011;11181;51.002;4.356;2023-02-03T03:28:12;11.33;;;2.03;;
22034;SDS011;11181;51.002;4.356;2023-02-03T03:30:42;4.83;;;1.40;;
22034;SDS011;11181;51.002;4.356;2023-02-03T03:33:10;5.53;;;1.67;;
22034;SDS011;11181;51.002;4.356;2023-02-03T03:35:38;7.87;;;1.93;;
22034;SDS011;11181;51.002;4.356;2023-02-03T03:38:10;7.40;;;1.97;;
22034;SDS011;11181;51.002;4.356;2023-02-03T03:40:43;5.23;;;1.33;;
22034;SDS011;11181;51.002;4.356;2023-02-03T03:43:15;6.50;;;1.53;;
22034;SDS011;11181;51.002;4.356;2023-02-03T03:45:46;4.73;;;1.27;;
22034;SDS011;11181;51.002;4.356;2023-02-03T03:48:22;6.53;;;1.60;;
22034;SDS011;11181;51.002;4.356;2023-02-03T03:50:55;3.60;;;1.57;;
22034;SDS011;11181;51.002;4.356;2023-02-03T03:53:27;7.90;;;1.57;;
22034;SDS011;11181;51.002;4.356;2023-02-03T03:55:56;6.70;;;1.60;;
22034;SDS011;11181;51.002;4.356;2023-02-03T03:58:26;4.77;;;1.57;;
22034;SDS011;11181;51.002;4.356;2023-02-03T04:00:58;6.60;;;1.63;;
22034;SDS011;11181;51.002;4.356;2023-02-03T04:03:29;12.93;;;1.47;;
22034;SDS011;11181;51.002;4.356;2023-02-03T04:06:00;9.70;;;1.30;;
22034;SDS011;11181;51.002;4.356;2023-02-03T04:08:27;5.00;;;1.57;;
22034;SDS011;11181;51.002;4.356;2023-02-03T04:10:54;7.17;;;1.67;;
22034;SDS011;11181;51.002;4.356;2023-02-03T04:13:21;5.23;;;1.23;;
22034;SDS011;11181;51.002;4.356;2023-02-03T04:15:48;5.80;;;1.70;;
22034;SDS011;11181;51.002;4.356;2023-02-03T04:18:15;5.20;;;1.37;;
22034;SDS011;11181;51.002;4.356;2023-02-03T04:20:43;2.93;;;1.17;;
22034;SDS011;11181;51.002;4.356;2023-02-03T04:23:10;7.73;;;1.73;;
22034;SDS011;11181;51.002;4.356;2023-02-03T04:25:37;4.97;;;1.30;;
22034;SDS011;11181;51.002;4.356;2023-02-03T04:28:04;2.53;;;0.90;;
22034;SDS011;11181;51.002;4.356;2023-02-03T04:30:31;7.97;;;1.83;;
22034;SDS011;11181;51.002;4.356;2023-02-03T04:32:58;6.90;;;1.50;;
22034;SDS011;11181;51.002;4.356;2023-02-03T04:35:25;2.23;;;1.20;;
22034;SDS011;11181;51.002;4.356;2023-02-03T04:37:54;4.93;;;1.30;;
22034;SDS011;11181;51.002;4.356;2023-02-03T04:40:20;4.23;;;1.10;;
22034;SDS011;11181;51.002;4.356;2023-02-03T04:42:47;4.90;;;1.30;;
22034;SDS011;11181;51.002;4.356;2023-02-03T04:45:14;2.73;;;1.13;;
22034;SDS011;11181;51.002;4.356;2023-02-03T04:47:41;5.10;;;1.47;;
22034;SDS011;11181;51.002;4.356;2023-02-03T04:50:08;5.43;;;1.10;;
22034;SDS011;11181;51.002;4.356;2023-02-03T04:52:35;8.37;;;1.43;;
22034;SDS011;11181;51.002;4.356;2023-02-03T04:55:04;4.00;;;1.13;;
22034;SDS011;11181;51.002;4.356;2023-02-03T04:57:32;4.43;;;1.40;;
22034;SDS011;11181;51.002;4.356;2023-02-03T04:59:59;7.53;;;1.00;;
22034;SDS011;11181;51.002;4.356;2023-02-03T05:02:25;2.57;;;1.23;;
22034;SDS011;11181;51.002;4.356;2023-02-03T05:04:52;5.10;;;0.93;;
22034;SDS011;11181;51.002;4.356;2023-02-03T05:07:19;8.77;;;2.23;;
22034;SDS011;11181;51.002;4.356;2023-02-03T05:09:46;4.83;;;1.50;;
22034;SDS011;11181;51.002;4.356;2023-02-03T05:12:14;2.83;;;1.20;;
22034;SDS011;11181;51.002;4.356;2023-02-03T05:14:41;3.20;;;1.07;;
22034;SDS011;11181;51.002;4.356;2023-02-03T05:17:08;4.97;;;1.50;;
22034;SDS011;11181;51.002;4.356;2023-02-03T05:19:35;2.50;;;1.23;;
22034;SDS011;11181;51.002;4.356;2023-02-03T05:22:02;4.17;;;1.40;;
22034;SDS011;11181;51.002;4.356;2023-02-03T05:24:29;5.77;;;1.27;;
22034;SDS011;11181;51.002;4.356;2023-02-03T05:26:56;7.00;;;1.40;;
22034;SDS011;11181;51.002;4.356;2023-02-03T05:29:24;5.30;;;1.40;;
22034;SDS011;11181;51.002;4.356;2023-02-03T05:31:51;11.10;;;1.40;;
22034;SDS011;11181;51.002;4.356;2023-02-03T05:34:18;3.00;;;1.40;;
22034;SDS011;11181;51.002;4.356;2023-02-03T05:36:45;3.87;;;1.30;;
22034;SDS011;11181;51.002;4.356;2023-02-03T05:39:12;10.00;;;1.50;;
22034;SDS011;11181;51.002;4.356;2023-02-03T05:41:39;5.90;;;2.17;;
22034;SDS011;11181;51.002;4.356;2023-02-03T05:44:17;8.37;;;1.43;;
22034;SDS011;11181;51.002;4.356;2023-02-03T05:46:45;3.47;;;1.10;;
22034;SDS011;11181;51.002;4.356;2023-02-03T05:49:12;4.90;;;1.23;;
22034;SDS011;11181;51.002;4.356;2023-02-03T05:51:39;6.13;;;1.20;;
22034;SDS011;11181;51.002;4.356;2023-02-03T05:54:07;2.63;;;1.30;;
22034;SDS011;11181;51.002;4.356;2023-02-03T05:56:34;3.27;;;1.20;;
22034;SDS011;11181;51.002;4.356;2023-02-03T05:59:01;3.73;;;1.47;;
22034;SDS011;11181;51.002;4.356;2023-02-03T06:01:29;1.63;;;1.00;;
22034;SDS011;11181;51.002;4.356;2023-02-03T06:03:57;4.00;;;1.33;;
22034;SDS011;11181;51.002;4.356;2023-02-03T06:06:24;4.23;;;0.80;;
22034;SDS011;11181;51.002;4.356;2023-02-03T06:08:57;3.10;;;1.13;;
22034;SDS011;11181;51.002;4.356;2023-02-03T06:11:24;5.23;;;1.10;;
22034;SDS011;11181;51.002;4.356;2023-02-03T06:13:51;3.17;;;1.00;;
22034;SDS011;11181;51.002;4.356;2023-02-03T06:16:18;5.60;;;1.77;;
22034;SDS011;11181;51.002;4.356;2023-02-03T06:18:45;4.43;;;1.03;;
22034;SDS011;11181;51.002;4.356;2023-02-03T06:21:13;4.13;;;1.00;;
22034;SDS011;11181;51.002;4.356;2023-02-03T06:23:40;4.23;;;1.10;;
22034;SDS011;11181;51.002;4.356;2023-02-03T06:26:07;6.13;;;1.20;;
22034;SDS011;11181;51.002;4.356;2023-02-03T06:28:34;4.33;;;1.13;;
22034;SDS011;11181;51.002;4.356;2023-02-03T06:31:02;3.40;;;1.20;;
22034;SDS011;11181;51.002;4.356;2023-02-03T06:33:29;4.60;;;1.47;;
22034;SDS011;11181;51.002;4.356;2023-02-03T06:35:56;4.07;;;1.23;;
22034;SDS011;11181;51.002;4.356;2023-02-03T06:38:25;3.27;;;1.13;;
22034;SDS011;11181;51.002;4.356;2023-02-03T06:40:54;2.23;;;1.13;;
22034;SDS011;11181;51.002;4.356;2023-02-03T06:43:21;5.10;;;1.30;;
22034;SDS011;11181;51.002;4.356;2023-02-03T06:45:48;2.83;;;0.90;;
22034;SDS011;11181;51.002;4.356;2023-02-03T06:48:15;3.43;;;0.87;;
22034;SDS011;11181;51.002;4.356;2023-02-03T06:50:43;3.53;;;1.20;;
22034;SDS011;11181;51.002;4.356;2023-02-03T06:53:10;3.77;;;1.07;;
22034;SDS011;11181;51.002;4.356;2023-02-03T06:55:38;4.23;;;1.10;;
22034;SDS011;11181;51.002;4.356;2023-02-03T06:58:05;3.70;;;1.10;;
22034;SDS011;11181;51.002;4.356;2023-02-03T07:00:32;1.57;;;0.90;;
22034;SDS011;11181;51.002;4.356;2023-02-03T07:02:59;6.57;;;1.93;;
22034;SDS011;11181;51.002;4.356;2023-02-03T07:05:26;6.53;;;1.40;;
22034;SDS011;11181;51.002;4.356;2023-02-03T07:07:54;5.67;;;1.20;;
22034;SDS011;11181;51.002;4.356;2023-02-03T07:10:21;5.27;;;1.20;;
22034;SDS011;11181;51.002;4.356;2023-02-03T07:12:49;4.10;;;1.07;;
22034;SDS011;11181;51.002;4.356;2023-02-03T07:15:17;4.60;;;1.37;;
22034;SDS011;11181;51.002;4.356;2023-02-03T07:17:45;3.17;;;1.57;;
22034;SDS011;11181;51.002;4.356;2023-02-03T07:20:18;3.83;;;1.00;;
22034;SDS011;11181;51.002;4.356;2023-02-03T07:22:50;4.83;;;1.13;;
22034;SDS011;11181;51.002;4.356;2023-02-03T07:25:17;3.53;;;1.43;;
22034;SDS011;11181;51.002;4.356;2023-02-03T07:27:45;6.60;;;1.13;;
22034;SDS011;11181;51.002;4.356;2023-02-03T07:30:13;5.87;;;1.40;;
22034;SDS011;11181;51.002;4.356;2023-02-03T07:32:40;5.33;;;1.10;;
22034;SDS011;11181;51.002;4.356;2023-02-03T07:35:12;6.47;;;1.07;;
22034;SDS011;11181;51.002;4.356;2023-02-03T07:37:39;4.67;;;1.60;;
22034;SDS011;11181;51.002;4.356;2023-02-03T07:40:07;8.80;;;1.33;;
22034;SDS011;11181;51.002;4.356;2023-02-03T07:42:34;3.90;;;1.20;;
22034;SDS011;11181;51.002;4.356;2023-02-03T07:45:07;1.77;;;1.10;;
22034;SDS011;11181;51.002;4.356;2023-02-03T07:47:36;3.83;;;1.20;;
22034;SDS011;11181;51.002;4.356;2023-02-03T07:50:03;2.57;;;1.20;;
22034;SDS011;11181;51.002;4.356;2023-02-03T07:52:31;6.03;;;1.27;;
22034;SDS011;11181;51.002;4.356;2023-02-03T07:54:58;4.60;;;1.07;;
22034;SDS011;11181;51.002;4.356;2023-02-03T07:57:25;4.63;;;1.00;;
22034;SDS011;11181;51.002;4.356;2023-02-03T07:59:52;3.87;;;1.20;;
22034;SDS011;11181;51.002;4.356;2023-02-03T08:02:19;8.27;;;3.03;;
22034;SDS011;11181;51.002;4.356;2023-02-03T08:04:48;4.43;;;1.27;;
22034;SDS011;11181;51.002;4.356;2023-02-03T08:07:15;6.53;;;1.60;;
22034;SDS011;11181;51.002;4.356;2023-02-03T08:09:42;5.37;;;0.90;;
22034;SDS011;11181;51.002;4.356;2023-02-03T08:12:09;4.03;;;1.33;;
22034;SDS011;11181;51.002;4.356;2023-02-03T08:14:36;4.20;;;1.40;;
22034;SDS011;11181;51.002;4.356;2023-02-03T08:17:03;6.10;;;1.77;;
22034;SDS011;11181;51.002;4.356;2023-02-03T08:19:30;5.47;;;1.30;;
22034;SDS011;11181;51.002;4.356;2023-02-03T08:21:58;2.77;;;1.47;;
22034;SDS011;11181;51.002;4.356;2023-02-03T08:24:25;3.77;;;1.50;;
22034;SDS011;11181;51.002;4.356;2023-02-03T08:26:52;3.93;;;1.40;;
22034;SDS011;11181;51.002;4.356;2023-02-03T08:29:19;3.47;;;1.20;;
22034;SDS011;11181;51.002;4.356;2023-02-03T08:31:46;3.70;;;1.03;;
22034;SDS011;11181;51.002;4.356;2023-02-03T08:34:13;2.37;;;1.20;;
22034;SDS011;11181;51.002;4.356;2023-02-03T08:36:40;3.93;;;1.00;;
22034;SDS011;11181;51.002;4.356;2023-02-03T08:39:09;4.43;;;1.33;;
22034;SDS011;11181;51.002;4.356;2023-02-03T08:41:36;6.37;;;1.20;;
22034;SDS011;11181;51.002;4.356;2023-02-03T08:44:03;8.10;;;1.40;;
22034;SDS011;11181;51.002;4.356;2023-02-03T08:46:30;4.77;;;1.50;;
22034;SDS011;11181;51.002;4.356;2023-02-03T08:48:58;3.07;;;1.03;;
22034;SDS011;11181;51.002;4.356;2023-02-03T08:51:26;2.30;;;1.03;;
22034;SDS011;11181;51.002;4.356;2023-02-03T08:53:54;2.10;;;0.87;;
22034;SDS011;11181;51.002;4.356;2023-02-03T08:56:22;3.33;;;1.37;;
22034;SDS011;11181;51.002;4.356;2023-02-03T08:58:51;5.20;;;1.17;;
22034;SDS011;11181;51.002;4.356;2023-02-03T09:01:18;4.33;;;1.10;;
22034;SDS011;11181;51.002;4.356;2023-02-03T09:03:45;5.97;;;1.20;;
22034;SDS011;11181;51.002;4.356;2023-02-03T09:06:12;4.57;;;1.20;;
22034;SDS011;11181;51.002;4.356;2023-02-03T09:08:40;5.80;;;1.30;;
22034;SDS011;11181;51.002;4.356;2023-02-03T09:11:08;5.57;;;1.30;;
22034;SDS011;11181;51.002;4.356;2023-02-03T09:13:36;1.67;;;1.10;;
22034;SDS011;11181;51.002;4.356;2023-02-03T09:16:04;3.13;;;1.17;;
22034;SDS011;11181;51.002;4.356;2023-02-03T09:18:32;3.23;;;1.40;;
22034;SDS011;11181;51.002;4.356;2023-02-03T09:20:59;2.60;;;1.20;;
22034;SDS011;11181;51.002;4.356;2023-02-03T09:23:27;3.50;;;1.50;;
22034;SDS011;11181;51.002;4.356;2023-02-03T09:25:54;4.57;;;1.60;;
22034;SDS011;11181;51.002;4.356;2023-02-03T09:28:21;4.87;;;1.67;;
22034;SDS011;11181;51.002;4.356;2023-02-03T09:30:49;7.50;;;1.80;;
22034;SDS011;11181;51.002;4.356;2023-02-03T09:33:16;6.47;;;2.20;;
22034;SDS011;11181;51.002;4.356;2023-02-03T09:35:50;7.90;;;1.80;;
22034;SDS011;11181;51.002;4.356;2023-02-03T09:38:17;5.90;;;1.93;;
22034;SDS011;11181;51.002;4.356;2023-02-03T09:40:44;4.03;;;2.03;;
22034;SDS011;11181;51.002;4.356;2023-02-03T09:43:19;3.67;;;1.57;;
22034;SDS011;11181;51.002;4.356;2023-02-03T09:46:00;3.90;;;2.00;;
22034;SDS011;11181;51.002;4.356;2023-02-03T09:48:33;4.00;;;1.50;;
22034;SDS011;11181;51.002;4.356;2023-02-03T09:51:02;6.73;;;1.97;;
22034;SDS011;11181;51.002;4.356;2023-02-03T09:53:32;3.53;;;1.10;;
22034;SDS011;11181;51.002;4.356;2023-02-03T09:56:05;5.80;;;2.03;;
22034;SDS011;11181;51.002;4.356;2023-02-03T09:58:32;2.90;;;1.90;;
22034;SDS011;11181;51.002;4.356;2023-02-03T10:01:01;6.37;;;1.60;;
22034;SDS011;11181;51.002;4.356;2023-02-03T10:03:32;5.77;;;1.83;;
22034;SDS011;11181;51.002;4.356;2023-02-03T10:06:09;2.73;;;1.67;;
22034;SDS011;11181;51.002;4.356;2023-02-03T10:08:48;5.37;;;2.60;;
22034;SDS011;11181;51.002;4.356;2023-02-03T10:11:27;6.33;;;2.33;;
22034;SDS011;11181;51.002;4.356;2023-02-03T10:14:07;3.40;;;1.93;;
22034;SDS011;11181;51.002;4.356;2023-02-03T10:16:44;5.20;;;2.33;;
22034;SDS011;11181;51.002;4.356;2023-02-03T10:19:28;4.70;;;2.30;;
22034;SDS011;11181;51.002;4.356;2023-02-03T10:22:04;4.10;;;1.90;;
22034;SDS011;11181;51.002;4.356;2023-02-03T10:24:39;6.67;;;2.87;;
22034;SDS011;11181;51.002;4.356;2023-02-03T10:27:10;3.93;;;2.30;;
22034;SDS011;11181;51.002;4.356;2023-02-03T10:29:42;4.97;;;2.27;;
22034;SDS011;11181;51.002;4.356;2023-02-03T10:32:10;4.07;;;2.20;;
22034;SDS011;11181;51.002;4.356;2023-02-03T10:34:38;3.80;;;1.90;;
22034;SDS011;11181;51.002;4.356;2023-02-03T10:37:09;4.70;;;2.00;;
22034;SDS011;11181;51.002;4.356;2023-02-03T10:39:48;3.43;;;2.20;;
22034;SDS011;11181;51.002;4.356;2023-02-03T10:42:17;3.70;;;1.77;;
22034;SDS011;11181;51.002;4.356;2023-02-03T10:44:47;5.00;;;2.40;;
22034;SDS011;11181;51.002;4.356;2023-02-03T10:47:24;7.90;;;2.40;;
22034;SDS011;11181;51.002;4.356;2023-02-03T10:49:55;2.73;;;1.90;;
22034;SDS011;11181;51.002;4.356;2023-02-03T10:52:24;5.80;;;2.60;;
22034;SDS011;11181;51.002;4.356;2023-02-03T10:54:53;4.73;;;3.13;;
22034;SDS011;11181;51.002;4.356;2023-02-03T10:57:20;5.90;;;2.30;;
22034;SDS011;11181;51.002;4.356;2023-02-03T10:59:48;6.77;;;2.30;;
22034;SDS011;11181;51.002;4.356;2023-02-03T11:02:21;8.13;;;2.43;;
22034;SDS011;11181;51.002;4.356;2023-02-03T11:05:17;8.53;;;3.40;;
22034;SDS011;11181;51.002;4.356;2023-02-03T11:07:45;6.63;;;2.47;;
22034;SDS011;11181;51.002;4.356;2023-02-03T11:13:10;8.07;;;1.90;;
22034;SDS011;11181;51.002;4.356;2023-02-03T11:15:42;5.43;;;2.50;;
22034;SDS011;11181;51.002;4.356;2023-02-03T11:21:12;5.70;;;2.30;;
22034;SDS011;11181;51.002;4.356;2023-02-03T11:23:46;8.57;;;2.87;;
22034;SDS011;11181;51.002;4.356;2023-02-03T11:26:18;7.40;;;2.77;;
22034;SDS011;11181;51.002;4.356;2023-02-03T11:28:48;5.07;;;2.73;;
22034;SDS011;11181;51.002;4.356;2023-02-03T11:31:21;5.37;;;2.57;;
22034;SDS011;11181;51.002;4.356;2023-02-03T11:33:53;6.43;;;2.77;;
22034;SDS011;11181;51.002;4.356;2023-02-03T11:36:27;5.03;;;2.10;;
22034;SDS011;11181;51.002;4.356;2023-02-03T11:39:08;3.57;;;2.30;;
22034;SDS011;11181;51.002;4.356;2023-02-03T11:41:52;5.87;;;2.87;;
22034;SDS011;11181;51.002;4.356;2023-02-03T11:44:21;9.53;;;3.63;;
22034;SDS011;11181;51.002;4.356;2023-02-03T11:46:51;7.20;;;2.90;;
22034;SDS011;11181;51.002;4.356;2023-02-03T11:49:34;5.13;;;3.33;;
22034;SDS011;11181;51.002;4.356;2023-02-03T11:52:34;5.63;;;2.53;;
22034;SDS011;11181;51.002;4.356;2023-02-03T11:55:37;7.43;;;2.67;;
22034;SDS011;11181;51.002;4.356;2023-02-03T11:58:24;4.47;;;2.47;;
22034;SDS011;11181;51.002;4.356;2023-02-03T12:01:10;6.63;;;2.93;;
22034;SDS011;11181;51.002;4.356;2023-02-03T12:03:47;12.83;;;3.17;;
22034;SDS011;11181;51.002;4.356;2023-02-03T12:06:39;6.03;;;2.70;;
22034;SDS011;11181;51.002;4.356;2023-02-03T12:09:27;7.27;;;2.77;;
22034;SDS011;11181;51.002;4.356;2023-02-03T12:12:04;3.90;;;2.07;;
22034;SDS011;11181;51.002;4.356;2023-02-03T12:14:48;6.20;;;2.23;;
22034;SDS011;11181;51.002;4.356;2023-02-03T12:17:30;7.17;;;1.70;;
22034;SDS011;11181;51.002;4.356;2023-02-03T12:20:25;3.43;;;2.30;;
22034;SDS011;11181;51.002;4.356;2023-02-03T12:23:08;5.00;;;3.43;;
22034;SDS011;11181;51.002;4.356;2023-02-03T12:25:47;5.73;;;2.30;;
22034;SDS011;11181;51.002;4.356;2023-02-03T12:28:29;2.87;;;1.80;;
22034;SDS011;11181;51.002;4.356;2023-02-03T12:31:07;5.97;;;1.83;;
22034;SDS011;11181;51.002;4.356;2023-02-03T12:33:39;7.53;;;1.80;;
22034;SDS011;11181;51.002;4.356;2023-02-03T12:36:10;3.43;;;2.40;;
22034;SDS011;11181;51.002;4.356;2023-02-03T12:38:44;6.93;;;1.70;;
22034;SDS011;11181;51.002;4.356;2023-02-03T12:41:17;4.13;;;1.90;;
22034;SDS011;11181;51.002;4.356;2023-02-03T12:43:48;4.23;;;1.93;;
22034;SDS011;11181;51.002;4.356;2023-02-03T12:46:21;3.53;;;1.80;;
22034;SDS011;11181;51.002;4.356;2023-02-03T12:48:53;4.83;;;2.10;;
22034;SDS011;11181;51.002;4.356;2023-02-03T12:51:27;3.23;;;1.83;;
22034;SDS011;11181;51.002;4.356;2023-02-03T12:54:02;5.47;;;1.77;;
22034;SDS011;11181;51.002;4.356;2023-02-03T12:56:36;5.03;;;1.70;;
22034;SDS011;11181;51.002;4.356;2023-02-03T12:59:10;4.63;;;1.77;;
22034;SDS011;11181;51.002;4.356;2023-02-03T13:01:41;3.50;;;1.53;;
22034;SDS011;11181;51.002;4.356;2023-02-03T13:04:17;4.13;;;1.47;;
22034;SDS011;11181;51.002;4.356;2023-02-03T13:06:53;3.50;;;2.27;;
22034;SDS011;11181;51.002;4.356;2023-02-03T13:09:30;4.57;;;1.77;;
22034;SDS011;11181;51.002;4.356;2023-02-03T13:12:04;7.37;;;1.87;;
22034;SDS011;11181;51.002;4.356;2023-02-03T13:14:35;2.70;;;1.77;;
22034;SDS011;11181;51.002;4.356;2023-02-03T13:17:07;1.43;;;1.20;;
22034;SDS011;11181;51.002;4.356;2023-02-03T13:19:41;2.83;;;1.20;;
22034;SDS011;11181;51.002;4.356;2023-02-03T13:22:12;4.63;;;1.53;;
22034;SDS011;11181;51.002;4.356;2023-02-03T13:24:43;3.40;;;1.40;;
22034;SDS011;11181;51.002;4.356;2023-02-03T13:27:22;3.93;;;1.57;;
22034;SDS011;11181;51.002;4.356;2023-02-03T13:30:08;5.60;;;2.07;;
22034;SDS011;11181;51.002;4.356;2023-02-03T13:32:55;2.87;;;1.07;;
22034;SDS011;11181;51.002;4.356;2023-02-03T13:35:48;4.90;;;1.57;;
22034;SDS011;11181;51.002;4.356;2023-02-03T13:41:28;5.27;;;1.03;;
22034;SDS011;11181;51.002;4.356;2023-02-03T13:44:04;4.17;;;1.80;;
22034;SDS011;11181;51.002;4.356;2023-02-03T13:46:37;4.73;;;1.50;;
22034;SDS011;11181;51.002;4.356;2023-02-03T13:49:05;3.70;;;1.90;;
22034;SDS011;11181;51.002;4.356;2023-02-03T13:51:34;3.63;;;1.37;;
22034;SDS011;11181;51.002;4.356;2023-02-03T13:54:07;3.67;;;1.90;;
22034;SDS011;11181;51.002;4.356;2023-02-03T13:56:44;2.10;;;1.20;;
22034;SDS011;11181;51.002;4.356;2023-02-03T13:59:27;4.23;;;1.50;;
22034;SDS011;11181;51.002;4.356;2023-02-03T14:05:06;2.30;;;1.70;;
22034;SDS011;11181;51.002;4.356;2023-02-03T14:07:49;6.97;;;1.77;;
22034;SDS011;11181;51.002;4.356;2023-02-03T14:10:19;5.73;;;2.00;;
22034;SDS011;11181;51.002;4.356;2023-02-03T14:12:55;3.27;;;1.83;;
22034;SDS011;11181;51.002;4.356;2023-02-03T14:15:33;5.53;;;1.77;;
22034;SDS011;11181;51.002;4.356;2023-02-03T14:23:53;3.23;;;1.47;;
22034;SDS011;11181;51.002;4.356;2023-02-03T14:26:28;5.17;;;1.60;;
22034;SDS011;11181;51.002;4.356;2023-02-03T14:29:07;5.03;;;1.60;;
22034;SDS011;11181;51.002;4.356;2023-02-03T14:31:51;2.97;;;1.27;;
22034;SDS011;11181;51.002;4.356;2023-02-03T14:34:26;6.10;;;1.67;;
22034;SDS011;11181;51.002;4.356;2023-02-03T14:43:09;4.50;;;1.80;;
22034;SDS011;11181;51.002;4.356;2023-02-03T14:48:57;6.63;;;1.70;;
22034;SDS011;11181;51.002;4.356;2023-02-03T14:51:44;2.93;;;1.57;;
22034;SDS011;11181;51.002;4.356;2023-02-03T14:54:28;4.27;;;2.00;;
22034;SDS011;11181;51.002;4.356;2023-02-03T14:57:13;4.17;;;1.80;;
22034;SDS011;11181;51.002;4.356;2023-02-03T14:59:53;4.00;;;2.07;;
22034;SDS011;11181;51.002;4.356;2023-02-03T15:02:23;3.90;;;1.60;;
22034;SDS011;11181;51.002;4.356;2023-02-03T15:05:33;6.07;;;1.73;;
22034;SDS011;11181;51.002;4.356;2023-02-03T15:08:00;3.57;;;2.03;;
22034;SDS011;11181;51.002;4.356;2023-02-03T15:10:28;2.23;;;1.60;;
22034;SDS011;11181;51.002;4.356;2023-02-03T15:15:49;4.47;;;2.00;;
22034;SDS011;11181;51.002;4.356;2023-02-03T15:18:21;8.27;;;1.83;;
22034;SDS011;11181;51.002;4.356;2023-02-03T15:20:54;3.27;;;1.70;;
22034;SDS011;11181;51.002;4.356;2023-02-03T15:23:23;4.77;;;2.43;;
22034;SDS011;11181;51.002;4.356;2023-02-03T15:25:53;3.13;;;1.43;;
22034;SDS011;11181;51.002;4.356;2023-02-03T15:28:21;5.57;;;2.10;;
22034;SDS011;11181;51.002;4.356;2023-02-03T15:30:50;4.10;;;1.50;;
22034;SDS011;11181;51.002;4.356;2023-02-03T15:33:22;5.07;;;1.70;;
22034;SDS011;11181;51.002;4.356;2023-02-03T15:35:50;5.70;;;2.60;;
22034;SDS011;11181;51.002;4.356;2023-02-03T15:38:23;8.07;;;2.60;;
22034;SDS011;11181;51.002;4.356;2023-02-03T15:40:53;5.60;;;1.80;;
22034;SDS011;11181;51.002;4.356;2023-02-03T15:43:23;4.93;;;1.93;;
22034;SDS011;11181;51.002;4.356;2023-02-03T15:45:57;7.37;;;2.23;;